Dublin, VA (24084)

12:53 PM EDT on October 21, 2014 (GMT -0400)
KVADUBLI3 | Change Station
CLOSE
Current Station
Personal Weather Station
Location: Dublin, VA
Elevation: 2133 ft
Nearby Weather Stations

Elev 2133 ft 37.10 °N, 80.68 °W | Updated 14 seconds ago

Overcast
Overcast
57.6 °F
Feels Like 57.6 °F
N
1.2
Wind Variable Wind from WNW
Gusts 6.9 mph

Today
High -- | Low -- °F
--% Chance of Precip.
Yesterday
High -- | Low -- °F
Precip. -- in
7:36 AM 6:37 PM
Waning Crescent, 5% visible
Pressure 29.94 in
Visibility 10.0 miles
Clouds Scattered Clouds 3300 ft
Mostly Cloudy 3900 ft
Overcast 4800 ft
Dew Point 47 °F
Humidity 68%
Rainfall 0.00 in
Snow Depth Not available.
UV 2 out of 12
Pollen 1.60 out of 12
Air Quality Not available.
Flu Activity Local Activity
METAR KPSK 211615Z AUTO 27004KT 10SM SCT033 BKN039 OVC048 14/09 A2994 RMK AO2 T01430088

More Conditions Fewer Conditions

Pressure 29.94 in
Visibility 10.0 miles
Clouds Scattered Clouds 3300 ft
Mostly Cloudy 3900 ft
Overcast 4800 ft
Dew Point 47 °F
Humidity 68%
Rainfall 0.00 in
Snow Depth Not available.
UV 2 out of 12
Pollen 1.60 out of 12
Air Quality Not available.
Flu Activity Local Activity
METAR KPSK 211615Z AUTO 27004KT 10SM SCT033 BKN039 OVC048 14/09 A2994 RMK AO2 T01430088

More Conditions Fewer Conditions

10-Day Weather Forecast

Almanac

Astronomy

Oct. 21, 2014 Rise Set
Actual Time 7:36 AM EDT 6:37 PM EDT
Civil Twilight 7:09 AM EDT 7:04 PM EDT
Nautical Twilight 6:39 AM EDT 7:34 PM EDT
Astronomical Twilight 6:09 AM EDT 8:04 PM EDT
Moon 5:21 AM EDT 5:28 PM EDT
Length of Visible Light 11h 54m
Length of Day
11h 01m
Tomorrow will be 2m 12s shorter.
Waning Crescent, 5% of the Moon is Illuminated
Today
Waning Crescent
Oct 23
New
Oct 30
First Quarter
Nov 6
Full
Nov 14
Last Quarter

Today's Extremes

State Highs State Lows

Community

WunderPhotos

Upload Photos

1,763,712 photos uploaded!

Nearby

Snow Depth

Station Depth Elevation
No new snow has been reported.

Earthquake Activity

City Distance Mag. Time & Date
No recent earthquake activity has been reported nearby.
Minimum magnitude displayed is 2.5.

Coastal Water Temperatures

Place Temperature
No Stations Reporting

Nearby Weather Stations